createdAt,value
2023-03-06T00:01:17.545Z,39.30
2023-03-06T00:03:44.233Z,37.60
2023-03-06T00:06:10.902Z,64.70
2023-03-06T00:08:37.556Z,60.10
2023-03-06T00:11:04.251Z,46.30
2023-03-06T00:13:32.266Z,43.20
2023-03-06T00:16:00.158Z,44.30
2023-03-06T00:18:27.121Z,59.30
2023-03-06T00:20:53.723Z,50.10
2023-03-06T00:23:20.339Z,58.20
2023-03-06T00:25:47.960Z,56.40
2023-03-06T00:28:15.844Z,54.40
2023-03-06T00:30:42.858Z,52.30
2023-03-06T00:33:09.693Z,54.50
2023-03-06T00:35:38.745Z,58.70
2023-03-06T00:38:05.374Z,62.70
2023-03-06T00:40:32.608Z,65.80
2023-03-06T00:42:59.646Z,54.00
2023-03-06T00:45:26.310Z,55.40
2023-03-06T00:47:52.913Z,72.00
2023-03-06T00:50:19.706Z,58.50
2023-03-06T00:52:46.280Z,53.10
2023-03-06T00:55:12.933Z,80.40
2023-03-06T00:57:40.544Z,57.00
2023-03-06T01:00:07.606Z,59.50
2023-03-06T01:05:00.994Z,57.20
2023-03-06T01:07:27.949Z,56.70
2023-03-06T01:09:57.187Z,49.00
2023-03-06T01:12:23.868Z,52.80
2023-03-06T01:17:17.442Z,70.10
2023-03-06T01:19:44.083Z,44.20
2023-03-06T01:22:12.522Z,64.90
2023-03-06T01:24:39.200Z,47.70
2023-03-06T01:27:05.946Z,47.60
2023-03-06T01:29:32.571Z,42.80
2023-03-06T01:31:59.454Z,51.50
2023-03-06T01:34:26.225Z,57.00
2023-03-06T01:36:52.860Z,62.00
2023-03-06T01:39:19.484Z,39.30
2023-03-06T01:41:46.313Z,54.80
2023-03-06T01:44:13.877Z,46.30
2023-03-06T01:46:42.490Z,36.60
2023-03-06T01:49:19.655Z,32.30
2023-03-06T01:51:54.733Z,45.50
2023-03-06T01:54:31.111Z,40.70
2023-03-06T01:57:01.076Z,41.90
2023-03-06T01:59:27.798Z,31.20
2023-03-06T02:01:55.737Z,43.10
2023-03-06T02:04:22.642Z,33.70
2023-03-06T02:06:50.418Z,35.70
2023-03-06T02:09:17.094Z,30.00
2023-03-06T02:11:44.409Z,29.90
2023-03-06T02:14:13.055Z,43.30
2023-03-06T02:16:39.872Z,30.70
2023-03-06T02:19:08.181Z,31.10
2023-03-06T02:21:36.401Z,34.50
2023-03-06T02:24:39.526Z,36.80
2023-03-06T02:27:06.175Z,33.20
2023-03-06T02:29:33.002Z,22.70
2023-03-06T02:32:02.011Z,35.10
2023-03-06T02:34:28.874Z,21.20
2023-03-06T02:37:03.204Z,28.40
2023-03-06T02:39:31.066Z,22.20
2023-03-06T02:41:57.798Z,28.90
2023-03-06T02:44:24.999Z,25.20
2023-03-06T02:46:51.676Z,26.60
2023-03-06T02:49:18.312Z,24.20
2023-03-06T02:51:45.174Z,27.80
2023-03-06T02:54:11.932Z,26.20
2023-03-06T02:56:38.573Z,34.60
2023-03-06T02:59:05.257Z,30.10
2023-03-06T03:01:32.885Z,25.30
2023-03-06T03:03:59.500Z,28.20
2023-03-06T03:06:27.427Z,29.40
2023-03-06T03:08:54.426Z,29.50
2023-03-06T03:11:21.040Z,27.70
2023-03-06T03:13:47.698Z,30.20
2023-03-06T03:16:18.292Z,25.80
2023-03-06T03:18:48.071Z,34.70
2023-03-06T03:21:16.211Z,33.30
2023-03-06T03:23:44.094Z,45.40
2023-03-06T03:26:15.707Z,34.50
2023-03-06T03:28:45.316Z,34.50
2023-03-06T03:31:13.317Z,34.70
2023-03-06T03:33:40.538Z,43.20
2023-03-06T03:36:07.744Z,36.10
2023-03-06T03:38:35.973Z,34.80
2023-03-06T03:41:02.847Z,41.60
2023-03-06T03:43:30.024Z,41.90
2023-03-06T03:45:57.665Z,37.40
2023-03-06T03:48:24.666Z,42.50
2023-03-06T03:50:51.695Z,45.30
2023-03-06T03:53:18.692Z,28.60
2023-03-06T03:55:47.282Z,45.00
2023-03-06T03:58:14.432Z,30.10
2023-03-06T04:00:41.398Z,43.90
2023-03-06T04:03:10.799Z,28.30
2023-03-06T04:05:40.785Z,31.80
2023-03-06T04:08:08.363Z,26.40
2023-03-06T04:10:38.747Z,27.80
2023-03-06T04:13:09.571Z,34.80
2023-03-06T04:15:41.848Z,32.00
2023-03-06T04:18:09.071Z,27.40
2023-03-06T04:20:35.776Z,26.90
2023-03-06T04:23:03.100Z,24.40
2023-03-06T04:27:57.873Z,35.80
2023-03-06T04:30:24.850Z,36.00
2023-03-06T04:35:18.663Z,20.90
2023-03-06T04:37:52.487Z,26.20
2023-03-06T04:40:28.224Z,24.40
2023-03-06T04:42:56.252Z,31.40
2023-03-06T04:45:23.047Z,34.20
2023-03-06T04:47:49.683Z,35.80
2023-03-06T04:50:16.748Z,23.90
2023-03-06T04:55:10.815Z,41.10
2023-03-06T04:57:38.228Z,28.10
2023-03-06T05:00:07.905Z,43.00
2023-03-06T05:02:34.519Z,32.20
2023-03-06T05:05:01.270Z,45.70
2023-03-06T05:07:27.906Z,18.00
2023-03-06T05:09:54.627Z,46.30
2023-03-06T05:12:21.275Z,52.30
2023-03-06T05:14:48.202Z,40.30
2023-03-06T05:17:14.933Z,46.10
2023-03-06T05:19:42.198Z,38.70
2023-03-06T05:22:08.816Z,38.30
2023-03-06T05:24:35.432Z,50.10
2023-03-06T05:27:02.063Z,39.60
2023-03-06T05:29:28.747Z,52.00
2023-03-06T05:31:55.754Z,53.90
2023-03-06T05:34:22.495Z,33.50
2023-03-06T05:36:49.097Z,52.10
2023-03-06T05:39:15.708Z,54.90
2023-03-06T05:41:42.387Z,44.60
2023-03-06T05:44:09.009Z,50.70
2023-03-06T05:46:35.638Z,49.10
2023-03-06T05:49:02.269Z,38.00
2023-03-06T05:51:28.865Z,57.50
2023-03-06T05:53:55.470Z,51.40
2023-03-06T05:56:22.199Z,36.80
2023-03-06T05:58:48.931Z,61.40
2023-03-06T06:01:18.010Z,58.60
2023-03-06T06:03:44.885Z,42.40
2023-03-06T06:06:13.399Z,47.80
2023-03-06T06:08:40.248Z,43.20
2023-03-06T06:11:07.921Z,57.10
2023-03-06T06:13:34.526Z,51.90
2023-03-06T06:16:06.963Z,47.10
2023-03-06T06:18:33.557Z,49.40
2023-03-06T06:21:03.682Z,47.70
2023-03-06T06:23:30.856Z,41.90
2023-03-06T06:26:03.150Z,51.50
2023-03-06T06:28:29.939Z,42.50
2023-03-06T06:30:56.621Z,47.80
2023-03-06T06:33:23.881Z,66.90
2023-03-06T06:35:50.833Z,52.80
2023-03-06T06:38:17.776Z,60.60
2023-03-06T06:40:46.964Z,66.50
2023-03-06T06:43:25.087Z,49.30
2023-03-06T06:45:52.201Z,54.20
2023-03-06T06:48:20.904Z,52.10
2023-03-06T06:50:55.233Z,47.40
2023-03-06T06:53:21.798Z,44.40
2023-03-06T06:55:48.435Z,42.90
2023-03-06T06:58:15.231Z,63.00
2023-03-06T07:00:41.864Z,46.80
2023-03-06T07:03:09.308Z,55.90
2023-03-06T07:05:35.923Z,45.10
2023-03-06T07:08:02.532Z,56.90
2023-03-06T07:10:29.166Z,44.40
2023-03-06T07:12:56.652Z,35.50
2023-03-06T07:15:26.866Z,39.30
2023-03-06T07:17:53.544Z,43.30
2023-03-06T07:20:20.457Z,48.10
2023-03-06T07:22:51.440Z,36.10
2023-03-06T07:25:19.032Z,35.20
2023-03-06T07:30:21.489Z,15.60
2023-03-06T07:32:48.132Z,30.00
2023-03-06T07:35:20.353Z,42.60
2023-03-06T07:37:47.524Z,38.90
2023-03-06T07:40:14.202Z,36.50
2023-03-06T07:42:40.857Z,33.00
2023-03-06T07:45:12.429Z,31.90
2023-03-06T07:47:39.726Z,35.50
2023-03-06T07:50:07.455Z,33.80
2023-03-06T07:52:34.439Z,30.40
2023-03-06T07:55:01.045Z,36.90
2023-03-06T07:57:27.672Z,35.00
2023-03-06T07:59:54.407Z,34.60
2023-03-06T08:02:21.017Z,28.60
2023-03-06T08:04:53.327Z,38.90
2023-03-06T08:07:19.962Z,33.30
2023-03-06T08:09:46.572Z,35.00
2023-03-06T08:12:14.690Z,32.30
2023-03-06T08:14:42.409Z,30.80
2023-03-06T08:17:09.039Z,31.80
2023-03-06T08:19:35.641Z,33.70
2023-03-06T08:22:04.560Z,28.80
2023-03-06T08:24:31.591Z,20.30
2023-03-06T08:29:24.857Z,27.90
2023-03-06T08:31:51.531Z,30.20
2023-03-06T08:34:22.464Z,31.30
2023-03-06T08:36:49.102Z,22.60
2023-03-06T08:39:15.722Z,20.90
2023-03-06T08:41:43.024Z,25.50
2023-03-06T08:44:09.917Z,21.80
2023-03-06T08:46:36.722Z,30.60
2023-03-06T08:49:03.602Z,24.10
2023-03-06T08:51:30.272Z,27.30
2023-03-06T08:53:57.290Z,23.40
2023-03-06T08:56:25.976Z,31.30
2023-03-06T08:58:52.764Z,26.50
2023-03-06T09:01:24.129Z,19.20
2023-03-06T09:03:51.324Z,24.20
2023-03-06T09:06:18.017Z,22.50
2023-03-06T09:08:44.775Z,19.00
2023-03-06T09:11:13.763Z,18.30
2023-03-06T09:13:40.983Z,19.60
2023-03-06T09:18:35.380Z,31.40
2023-03-06T09:21:02.199Z,21.70
2023-03-06T09:23:28.854Z,24.10
2023-03-06T09:25:56.357Z,25.10
2023-03-06T09:28:23.620Z,25.90
2023-03-06T09:30:50.661Z,15.30
2023-03-06T09:35:54.658Z,20.60
2023-03-06T09:38:23.685Z,20.00
2023-03-06T09:41:29.425Z,34.50
2023-03-06T09:44:14.595Z,34.40
2023-03-06T09:46:47.382Z,41.10
2023-03-06T09:49:39.029Z,36.70
2023-03-06T09:52:10.156Z,35.00
2023-03-06T09:54:52.412Z,30.60
2023-03-06T09:57:31.712Z,23.70
2023-03-06T10:00:05.960Z,25.90
2023-03-06T10:02:48.065Z,25.00
2023-03-06T10:05:29.246Z,23.90
2023-03-06T10:08:01.877Z,27.30
2023-03-06T10:10:35.922Z,27.40
2023-03-06T10:13:05.594Z,28.80
2023-03-06T10:15:36.388Z,25.50
2023-03-06T10:18:03.388Z,26.00
2023-03-06T10:20:53.515Z,25.50
2023-03-06T10:23:35.459Z,22.90
2023-03-06T10:26:19.694Z,24.10
2023-03-06T10:29:11.243Z,28.50
2023-03-06T10:31:39.783Z,24.00
2023-03-06T10:34:21.916Z,26.90
2023-03-06T10:36:48.902Z,22.00
2023-03-06T10:39:17.729Z,21.80
2023-03-06T10:41:45.321Z,19.00
2023-03-06T10:44:12.131Z,21.50
2023-03-06T10:46:42.494Z,17.60
2023-03-06T10:49:41.960Z,12.70
2023-03-06T10:52:14.339Z,16.10
2023-03-06T10:54:42.814Z,17.80
2023-03-06T10:57:29.489Z,18.90
2023-03-06T11:00:01.231Z,16.80
2023-03-06T11:02:36.759Z,18.20
2023-03-06T11:05:03.933Z,15.20
2023-03-06T11:10:19.144Z,17.00
2023-03-06T11:13:03.012Z,19.80
2023-03-06T11:15:29.944Z,17.50
2023-03-06T11:18:04.531Z,13.70
2023-03-06T11:20:51.508Z,14.90
2023-03-06T11:23:47.271Z,13.60
2023-03-06T11:26:17.036Z,21.30
2023-03-06T11:29:04.661Z,16.70
2023-03-06T11:31:52.893Z,13.30
2023-03-06T11:34:21.502Z,15.20
2023-03-06T11:36:53.577Z,15.30
2023-03-06T11:39:36.225Z,16.00
2023-03-06T11:42:17.508Z,15.20
2023-03-06T11:45:15.531Z,18.90
2023-03-06T11:48:23.972Z,14.70
2023-03-06T11:50:52.676Z,15.10
2023-03-06T11:53:21.363Z,13.00
2023-03-06T11:55:55.055Z,14.50
2023-03-06T11:58:54.215Z,14.20
2023-03-06T12:04:06.555Z,13.40
2023-03-06T12:07:12.326Z,13.40
2023-03-06T12:09:54.056Z,14.00
2023-03-06T12:12:50.459Z,13.80
2023-03-06T12:15:20.804Z,14.60
2023-03-06T12:18:09.440Z,13.90
2023-03-06T12:20:51.247Z,16.80
2023-03-06T12:23:38.082Z,14.00
2023-03-06T12:26:14.358Z,19.30
2023-03-06T12:29:03.174Z,16.60
2023-03-06T12:31:48.729Z,13.90
2023-03-06T12:34:18.567Z,13.00
2023-03-06T12:36:51.907Z,13.50
2023-03-06T12:39:59.030Z,13.90
2023-03-06T12:42:29.908Z,11.00
2023-03-06T12:45:11.049Z,14.70
2023-03-06T12:47:45.104Z,15.30
2023-03-06T12:50:26.635Z,14.40
2023-03-06T12:52:59.125Z,14.30
2023-03-06T12:55:26.213Z,17.30
2023-03-06T12:57:53.115Z,14.50
2023-03-06T13:00:32.131Z,14.00
2023-03-06T13:03:06.905Z,12.90
2023-03-06T13:05:49.572Z,12.80
2023-03-06T13:08:28.685Z,12.90
2023-03-06T13:11:33.486Z,13.40
2023-03-06T13:14:00.444Z,13.20
2023-03-06T13:16:31.285Z,12.80
2023-03-06T13:19:11.421Z,14.40
2023-03-06T13:21:47.965Z,14.80
2023-03-06T13:24:22.415Z,14.90
2023-03-06T13:27:06.040Z,15.30
2023-03-06T13:29:35.885Z,14.90
2023-03-06T13:32:02.726Z,13.40
2023-03-06T13:34:33.624Z,13.40
2023-03-06T13:37:20.014Z,14.30
2023-03-06T13:39:56.094Z,10.00
2023-03-06T13:42:32.779Z,13.10
2023-03-06T13:45:24.100Z,13.20
2023-03-06T13:48:33.685Z,13.60
2023-03-06T13:50:43.508Z,12.80
2023-03-06T13:53:22.490Z,12.50
2023-03-06T13:56:10.691Z,14.80
2023-03-06T13:58:43.472Z,11.10
2023-03-06T14:01:40.555Z,13.40
2023-03-06T14:04:13.045Z,13.80
2023-03-06T14:06:42.192Z,13.40
2023-03-06T14:09:22.093Z,14.10
2023-03-06T14:11:52.110Z,15.20
2023-03-06T14:14:28.737Z,13.70
2023-03-06T14:16:55.568Z,15.90
2023-03-06T14:19:22.779Z,16.10
2023-03-06T14:21:51.346Z,14.90
2023-03-06T14:24:19.968Z,13.90
2023-03-06T14:26:48.909Z,15.40
2023-03-06T14:29:23.790Z,16.30
2023-03-06T14:31:55.140Z,19.30
2023-03-06T14:34:32.440Z,17.50
2023-03-06T14:37:01.628Z,23.90
2023-03-06T14:39:35.495Z,21.60
2023-03-06T14:42:07.286Z,15.60
2023-03-06T14:44:34.087Z,20.10
2023-03-06T14:47:20.699Z,19.00
2023-03-06T14:49:47.464Z,20.20
2023-03-06T14:52:20.241Z,18.10
2023-03-06T14:54:47.035Z,16.20
2023-03-06T14:57:14.897Z,20.50
2023-03-06T14:59:51.166Z,20.50
2023-03-06T15:02:20.502Z,20.80
2023-03-06T15:05:35.002Z,20.90
2023-03-06T15:08:03.848Z,24.90
2023-03-06T15:10:33.236Z,30.20
2023-03-06T15:13:22.531Z,19.00
2023-03-06T15:15:59.394Z,24.60
2023-03-06T15:19:02.657Z,24.80
2023-03-06T15:21:38.176Z,24.30
2023-03-06T15:24:34.239Z,20.30
2023-03-06T15:27:04.661Z,23.00
2023-03-06T15:29:31.449Z,24.60
2023-03-06T15:32:33.016Z,23.00
2023-03-06T15:35:24.653Z,22.10
2023-03-06T15:37:51.784Z,21.40
2023-03-06T15:42:49.962Z,18.90
2023-03-06T15:45:21.960Z,22.30
2023-03-06T15:47:49.723Z,21.10
2023-03-06T15:50:18.155Z,21.30
2023-03-06T15:52:45.524Z,24.10
2023-03-06T15:55:13.331Z,19.80
2023-03-06T15:57:51.002Z,20.10
2023-03-06T16:00:27.598Z,20.00
2023-03-06T16:02:58.204Z,18.40
2023-03-06T16:05:25.421Z,21.60
2023-03-06T16:07:58.899Z,18.80
2023-03-06T16:10:27.725Z,22.50
2023-03-06T16:12:56.831Z,22.50
2023-03-06T16:15:30.973Z,17.30
2023-03-06T16:17:57.839Z,17.70
2023-03-06T16:20:26.181Z,22.60
2023-03-06T16:22:55.851Z,20.70
2023-03-06T16:25:23.817Z,26.60
2023-03-06T16:27:58.132Z,21.50
2023-03-06T16:30:29.724Z,27.60
2023-03-06T16:32:57.195Z,29.20
2023-03-06T16:35:23.968Z,27.80
2023-03-06T16:37:50.667Z,22.80
2023-03-06T16:40:20.363Z,23.20
2023-03-06T16:42:47.103Z,22.90
2023-03-06T16:45:13.971Z,26.10
2023-03-06T16:47:40.912Z,18.50
2023-03-06T16:50:30.797Z,18.00
2023-03-06T16:52:57.472Z,21.00
2023-03-06T16:55:25.063Z,21.40
2023-03-06T16:57:51.844Z,15.90
2023-03-06T17:00:19.061Z,20.90
2023-03-06T17:02:48.547Z,16.60
2023-03-06T17:05:16.855Z,25.10
2023-03-06T17:07:43.998Z,19.20
2023-03-06T17:10:13.097Z,21.80
2023-03-06T17:12:39.715Z,18.20
2023-03-06T17:15:07.076Z,25.80
2023-03-06T17:17:33.805Z,25.50
2023-03-06T17:20:00.464Z,24.20
2023-03-06T17:22:27.435Z,22.40
2023-03-06T17:24:54.138Z,27.10
2023-03-06T17:27:22.698Z,30.00
2023-03-06T17:29:49.419Z,33.80
2023-03-06T17:32:16.120Z,41.20
2023-03-06T17:34:42.880Z,46.60
2023-03-06T17:37:09.663Z,46.60
2023-03-06T17:39:37.510Z,51.50
2023-03-06T17:42:04.948Z,46.00
2023-03-06T17:44:34.346Z,51.40
2023-03-06T17:47:01.000Z,45.80
2023-03-06T17:49:27.743Z,42.60
2023-03-06T17:51:56.859Z,38.40
2023-03-06T17:54:40.419Z,38.20
2023-03-06T17:57:10.066Z,35.80
2023-03-06T18:00:01.849Z,37.20
2023-03-06T18:02:49.565Z,47.40
2023-03-06T18:05:18.344Z,43.90
2023-03-06T18:07:45.030Z,43.50
2023-03-06T18:10:11.736Z,48.60
2023-03-06T18:12:39.756Z,39.80
2023-03-06T18:15:08.113Z,49.90
2023-03-06T18:17:38.927Z,43.80
2023-03-06T18:20:10.103Z,40.40
2023-03-06T18:22:36.784Z,38.30
2023-03-06T18:25:04.261Z,39.80
2023-03-06T18:27:34.455Z,33.10
2023-03-06T18:30:01.564Z,31.10
2023-03-06T18:32:55.889Z,30.00
2023-03-06T18:35:25.302Z,33.00
2023-03-06T18:37:55.015Z,27.30
2023-03-06T18:40:24.949Z,30.30
2023-03-06T18:42:54.788Z,33.30
2023-03-06T18:45:21.629Z,32.50
2023-03-06T18:47:48.370Z,29.00
2023-03-06T18:50:17.662Z,32.00
2023-03-06T18:52:44.699Z,35.60
2023-03-06T18:55:12.419Z,34.80
2023-03-06T18:57:39.240Z,36.60
2023-03-06T19:00:06.971Z,34.00
2023-03-06T19:02:33.781Z,32.80
2023-03-06T19:05:00.406Z,36.40
2023-03-06T19:07:27.174Z,32.40
2023-03-06T19:09:54.697Z,34.60
2023-03-06T19:12:21.342Z,31.70
2023-03-06T19:14:48.058Z,42.40
2023-03-06T19:17:14.682Z,41.00
2023-03-06T19:19:41.390Z,33.40
2023-03-06T19:22:08.164Z,40.90
2023-03-06T19:24:34.789Z,36.70
2023-03-06T19:27:01.399Z,41.30
2023-03-06T19:29:28.568Z,41.70
2023-03-06T19:34:24.160Z,37.90
2023-03-06T19:36:50.943Z,37.20
2023-03-06T19:39:17.600Z,42.10
2023-03-06T19:41:46.439Z,43.80
2023-03-06T19:44:14.706Z,35.20
2023-03-06T19:46:41.376Z,42.50
2023-03-06T19:49:12.201Z,33.60
2023-03-06T19:51:39.005Z,45.40
2023-03-06T19:54:05.678Z,43.20
2023-03-06T19:56:33.707Z,25.00
2023-03-06T19:59:00.365Z,23.00
2023-03-06T20:01:27.479Z,29.30
2023-03-06T20:06:27.795Z,20.70
2023-03-06T20:08:54.382Z,18.30
2023-03-06T20:11:25.775Z,26.20
2023-03-06T20:13:52.714Z,27.70
2023-03-06T20:16:19.544Z,29.50
2023-03-06T20:18:46.382Z,25.00
2023-03-06T20:21:13.052Z,26.90
2023-03-06T20:23:39.715Z,32.50
2023-03-06T20:26:09.491Z,30.80
2023-03-06T20:28:37.248Z,30.70
2023-03-06T20:31:13.426Z,28.40
2023-03-06T20:33:40.193Z,35.70
2023-03-06T20:36:17.210Z,36.60
2023-03-06T20:38:44.007Z,34.40
2023-03-06T20:41:17.829Z,34.20
2023-03-06T20:43:44.770Z,16.40
2023-03-06T20:46:15.666Z,19.50
2023-03-06T20:48:43.084Z,22.40
2023-03-06T20:51:18.090Z,19.40
2023-03-06T20:53:45.934Z,18.00
2023-03-06T20:56:13.861Z,13.00
2023-03-06T20:58:40.516Z,16.60
2023-03-06T21:01:07.178Z,15.90
2023-03-06T21:03:33.961Z,18.50
2023-03-06T21:06:00.817Z,14.60
2023-03-06T21:08:27.468Z,13.10
2023-03-06T21:10:54.080Z,10.40
2023-03-06T21:13:20.825Z,7.70
2023-03-06T21:15:47.724Z,11.20
2023-03-06T21:18:14.465Z,14.40
2023-03-06T21:20:41.523Z,7.20
2023-03-06T21:25:34.773Z,7.70
2023-03-06T21:28:01.576Z,12.60
2023-03-06T21:30:29.473Z,7.40
2023-03-06T21:32:56.195Z,13.10
2023-03-06T21:35:22.822Z,20.20
2023-03-06T21:37:49.565Z,13.00
2023-03-06T21:40:16.302Z,13.50
2023-03-06T21:42:43.007Z,14.90
2023-03-06T21:45:10.608Z,12.70
2023-03-06T21:47:41.080Z,14.60
2023-03-06T21:50:09.594Z,7.40
2023-03-06T21:52:36.255Z,8.20
2023-03-06T21:55:02.866Z,23.40
2023-03-06T21:57:29.566Z,13.60
2023-03-06T21:59:56.275Z,9.90
2023-03-06T22:02:23.020Z,11.50
2023-03-06T22:04:51.178Z,5.80
2023-03-06T22:07:18.455Z,11.20
2023-03-06T22:09:45.765Z,9.80
2023-03-06T22:12:12.436Z,10.00
2023-03-06T22:14:39.174Z,8.30
2023-03-06T22:17:05.787Z,9.00
2023-03-06T22:19:32.654Z,14.10
2023-03-06T22:21:59.292Z,9.80
2023-03-06T22:24:26.529Z,13.00
2023-03-06T22:26:53.225Z,13.70
2023-03-06T22:29:19.897Z,11.50
2023-03-06T22:31:46.752Z,9.80
2023-03-06T22:34:13.426Z,10.00
2023-03-06T22:36:39.981Z,13.70
2023-03-06T22:39:06.624Z,12.70
2023-03-06T22:41:33.422Z,13.80
2023-03-06T22:44:01.020Z,11.50
2023-03-06T22:46:27.918Z,10.90
2023-03-06T22:51:24.978Z,12.20
2023-03-06T22:53:51.609Z,12.40
2023-03-06T22:56:19.617Z,21.70
2023-03-06T22:58:46.430Z,13.20
2023-03-06T23:01:15.319Z,21.40
2023-03-06T23:03:46.351Z,13.40
2023-03-06T23:06:17.826Z,16.00
2023-03-06T23:08:45.075Z,19.10
2023-03-06T23:11:13.685Z,12.00
2023-03-06T23:13:59.061Z,20.10
2023-03-06T23:16:44.559Z,19.50
2023-03-06T23:19:30.107Z,19.80
2023-03-06T23:22:15.790Z,21.00
2023-03-06T23:25:01.067Z,12.50
2023-03-06T23:27:29.552Z,16.20
2023-03-06T23:29:59.138Z,13.80
2023-03-06T23:32:26.194Z,14.70
2023-03-06T23:37:19.895Z,14.00
2023-03-06T23:42:13.638Z,18.60
2023-03-06T23:44:40.513Z,16.50
2023-03-06T23:47:07.163Z,14.90
2023-03-06T23:49:34.003Z,17.10
2023-03-06T23:52:00.746Z,16.10
2023-03-06T23:54:27.592Z,20.30
2023-03-06T23:56:54.223Z,22.00
2023-03-06T23:59:20.874Z,19.70
